Time;durP1;ratioP1;P1;durP2;ratioP2;P2;SDS_P1;SDS_P2;PMS_P1;PMS_P2;Temp;Humidity;BMP_temperature;BMP_pressure;BME280_temperature;BME280_humidity;BME280_pressure;Samples;Min_cycle;Max_cycle;Signal;HPM_P1;HPM_P2
2023/01/29 00:01:53;;;;;;;14.30;9.50;;;;;;;-1.02;72.04;100986.84;103207;1258;110093;-70
2023/01/29 00:04:20;;;;;;;13.80;9.30;;;;;;;-1.06;71.87;100986.88;102429;1252;1003118;-70
2023/01/29 00:06:47;;;;;;;12.90;8.50;;;;;;;-1.09;72.01;100987.30;103300;1252;96966;-71
2023/01/29 00:09:14;;;;;;;10.80;8.50;;;;;;;-1.11;71.87;100977.02;102554;1252;1002708;-71
2023/01/29 00:11:41;;;;;;;13.00;8.40;;;;;;;-1.12;71.94;100970.84;103196;1258;138518;-69
2023/01/29 00:14:08;;;;;;;12.50;8.50;;;;;;;-1.14;72.14;100969.25;103410;1252;109304;-70
2023/01/29 00:16:35;;;;;;;11.30;8.50;;;;;;;-1.15;72.20;100964.11;103377;1251;138951;-68
2023/01/29 00:19:02;;;;;;;12.70;8.50;;;;;;;-1.18;71.94;100967.61;103321;1252;97091;-69
2023/01/29 00:21:30;;;;;;;12.80;8.80;;;;;;;-1.21;71.99;100966.52;103376;1252;107887;-70
2023/01/29 00:23:58;;;;;;;12.50;8.60;;;;;;;-1.23;71.99;100959.14;103253;1252;138023;-70
2023/01/29 00:26:25;;;;;;;11.10;7.70;;;;;;;-1.25;71.88;100956.54;103341;1255;111262;-70
2023/01/29 00:28:52;;;;;;;10.60;7.60;;;;;;;-1.26;72.07;100953.42;103224;1251;139704;-70
2023/01/29 00:31:22;;;;;;;11.50;7.70;;;;;;;-1.27;71.96;100950.48;103375;1254;96365;-70
2023/01/29 00:33:49;;;;;;;11.50;7.70;;;;;;;-1.30;71.88;100950.75;103366;1252;140694;-71
2023/01/29 00:36:17;;;;;;;10.40;7.10;;;;;;;-1.32;72.17;100950.53;103375;1256;96562;-70
2023/01/29 00:38:45;;;;;;;11.60;7.40;;;;;;;-1.32;72.35;100954.27;103280;1252;109953;-70
2023/01/29 00:46:45;;;;;;;10.10;6.90;;;;;;;-1.35;72.16;100944.81;103212;1256;137938;-70
2023/01/29 00:49:12;;;;;;;8.50;6.60;;;;;;;-1.37;72.38;100939.80;103269;1257;96905;-70
2023/01/29 00:51:40;;;;;;;8.40;6.00;;;;;;;-1.39;72.40;100934.13;103314;1257;108872;-69
2023/01/29 00:54:09;;;;;;;8.30;6.10;;;;;;;-1.43;72.25;100933.33;103359;1254;107570;-69
2023/01/29 00:56:38;;;;;;;9.10;6.60;;;;;;;-1.46;72.20;100938.02;103336;1252;96455;-69
2023/01/29 00:59:05;;;;;;;11.30;6.50;;;;;;;-1.48;72.09;100932.51;103120;1254;139714;-71
2023/01/29 01:04:16;;;;;;;9.20;6.50;;;;;;;-1.47;72.31;100926.21;103259;1252;138691;-70
2023/01/29 01:06:43;;;;;;;11.00;6.00;;;;;;;-1.46;72.61;100919.59;103325;1252;106735;-71
2023/01/29 01:11:56;;;;;;;9.50;6.50;;;;;;;-1.47;72.61;100902.34;102480;1256;1003250;-70
2023/01/29 01:14:24;;;;;;;9.00;6.30;;;;;;;-1.49;72.55;100896.16;103259;1252;96325;-71
2023/01/29 01:16:51;;;;;;;9.60;6.30;;;;;;;-1.51;72.51;100893.72;103164;1252;139671;-70
2023/01/29 01:19:18;;;;;;;11.00;6.70;;;;;;;-1.50;72.44;100889.83;103280;1256;106854;-70
2023/01/29 01:21:47;;;;;;;8.30;6.30;;;;;;;-1.50;72.44;100885.90;103195;1255;140436;-70
2023/01/29 01:24:14;;;;;;;10.10;6.60;;;;;;;-1.49;72.76;100882.67;103305;1252;107292;-70
2023/01/29 01:26:42;;;;;;;11.40;6.70;;;;;;;-1.48;72.73;100888.33;103302;1252;96528;-71
2023/01/29 01:29:09;;;;;;;10.90;6.30;;;;;;;-1.48;72.71;100884.23;103158;1252;138121;-71
2023/01/29 01:31:36;;;;;;;10.10;6.80;;;;;;;-1.48;72.95;100883.71;103318;1254;106785;-70
2023/01/29 01:34:03;;;;;;;10.20;6.80;;;;;;;-1.51;72.74;100884.50;103249;1252;138577;-69
2023/01/29 01:36:31;;;;;;;11.60;7.00;;;;;;;-1.52;72.92;100886.20;103347;1255;108155;-70
2023/01/29 01:38:58;;;;;;;9.10;6.90;;;;;;;-1.51;72.75;100890.66;101791;1252;1003497;-71
2023/01/29 01:41:26;;;;;;;12.80;7.20;;;;;;;-1.50;72.56;100890.16;103133;1252;138142;-69
2023/01/29 01:43:56;;;;;;;11.40;7.40;;;;;;;-1.48;72.72;100887.98;102610;1253;1003995;-72
2023/01/29 01:46:24;;;;;;;12.20;7.80;;;;;;;-1.47;72.54;100886.98;103240;1252;138375;-71
2023/01/29 01:48:58;;;;;;;12.00;7.80;;;;;;;-1.50;72.40;100884.02;103420;1252;108176;-70
2023/01/29 01:51:28;;;;;;;11.90;8.20;;;;;;;-1.51;72.64;100895.09;102602;1252;1004437;-70
2023/01/29 01:54:01;;;;;;;12.30;8.10;;;;;;;-1.51;72.56;100892.53;102467;1255;1004070;-71
2023/01/29 01:56:37;;;;;;;13.30;8.10;;;;;;;-1.52;72.69;100898.99;103321;1255;107714;-70
2023/01/29 01:59:05;;;;;;;12.70;8.30;;;;;;;-1.53;72.89;100894.69;103180;1253;139182;-71
2023/01/29 02:01:33;;;;;;;12.40;8.20;;;;;;;-1.52;72.94;100889.76;103357;1252;106772;-71
2023/01/29 02:09:39;;;;;;;15.30;8.60;;;;;;;-1.50;72.89;100893.91;103212;1252;107183;-72
2023/01/29 02:12:08;;;;;;;16.20;9.80;;;;;;;-1.50;73.20;100895.09;103265;1256;96676;-71
2023/01/29 02:14:39;;;;;;;15.50;9.50;;;;;;;-1.49;72.89;100896.81;103322;1252;106677;-71
2023/01/29 02:17:06;;;;;;;14.80;9.90;;;;;;;-1.49;73.42;100890.52;102924;1254;1003053;-71
2023/01/29 02:19:44;;;;;;;14.70;10.00;;;;;;;-1.48;73.39;100892.42;103105;1257;301042;-71
2023/01/29 02:22:29;;;;;;;13.50;9.60;;;;;;;-1.47;73.14;100886.98;103217;1252;138467;-72
2023/01/29 02:25:11;;;;;;;17.30;10.10;;;;;;;-1.48;73.08;100887.13;103292;1252;96922;-71
2023/01/29 02:27:57;;;;;;;14.80;9.70;;;;;;;-1.47;73.34;100881.35;103225;1255;107686;-72
2023/01/29 02:30:33;;;;;;;17.10;10.20;;;;;;;-1.45;73.54;100875.79;103218;1252;96451;-71
2023/01/29 02:33:06;;;;;;;17.50;10.00;;;;;;;-1.46;73.59;100873.38;103322;1252;1003672;-71
2023/01/29 02:35:41;;;;;;;16.10;10.30;;;;;;;-1.44;73.53;100871.21;103227;1252;138654;-71
2023/01/29 02:38:17;;;;;;;16.50;9.60;;;;;;;-1.43;73.72;100868.02;103294;1254;96437;-71
2023/01/29 02:40:50;;;;;;;17.00;9.80;;;;;;;-1.41;73.76;100867.20;103670;1252;138129;-71
2023/01/29 02:43:29;;;;;;;15.30;9.80;;;;;;;-1.41;73.55;100862.28;101781;1256;1002886;-72
2023/01/29 02:46:06;;;;;;;16.00;10.60;;;;;;;-1.42;73.61;100860.55;102488;1255;1004209;-72
2023/01/29 02:48:43;;;;;;;21.10;11.60;;;;;;;-1.42;73.82;100855.24;103578;1252;107269;-72
2023/01/29 02:51:19;;;;;;;14.20;9.90;;;;;;;-1.45;73.96;100851.40;103317;1254;96444;-70
2023/01/29 02:53:53;;;;;;;11.20;7.70;;;;;;;-1.43;73.65;100851.80;103268;1252;138312;-72
2023/01/29 02:56:27;;;;;;;17.50;9.90;;;;;;;-1.46;73.73;100854.94;103252;1254;96596;-71
2023/01/29 02:59:00;;;;;;;15.60;10.80;;;;;;;-1.47;74.14;100859.02;103656;1251;138304;-71
2023/01/29 03:01:33;;;;;;;16.40;10.70;;;;;;;-1.47;73.99;100858.67;103735;1248;106689;-70
2023/01/29 03:04:06;;;;;;;15.00;10.40;;;;;;;-1.46;74.13;100849.14;102948;1256;139643;-71
2023/01/29 03:06:38;;;;;;;16.00;10.30;;;;;;;-1.45;74.02;100846.61;102588;1255;1003048;-71
2023/01/29 03:09:11;;;;;;;14.80;10.00;;;;;;;-1.46;74.12;100844.39;102703;1257;1002615;-71
2023/01/29 03:11:42;;;;;;;15.30;10.10;;;;;;;-1.46;74.13;100841.46;103220;1250;140051;-71
2023/01/29 03:14:13;;;;;;;13.90;9.30;;;;;;;-1.46;73.88;100841.64;103447;1251;107857;-71
2023/01/29 03:16:45;;;;;;;13.80;9.20;;;;;;;-1.46;73.94;100837.89;103854;1251;139553;-70
2023/01/29 03:19:16;;;;;;;13.30;10.00;;;;;;;-1.47;73.94;100838.89;103419;1255;108117;-70
2023/01/29 03:21:54;;;;;;;15.20;10.30;;;;;;;-1.49;74.14;100838.84;103457;1256;96597;-70
2023/01/29 03:32:51;;;;;;;14.40;9.40;;;;;;;-1.46;74.57;100838.23;104817;1251;106807;-71
2023/01/29 03:35:35;;;;;;;14.40;9.80;;;;;;;-1.43;74.43;100838.51;103337;1257;139464;-71
2023/01/29 03:38:06;;;;;;;16.90;10.20;;;;;;;-1.42;74.39;100841.26;103491;1251;109984;-71
2023/01/29 03:40:43;;;;;;;16.20;9.90;;;;;;;-1.41;74.38;100834.98;103380;1253;138592;-72
2023/01/29 03:43:15;;;;;;;15.00;9.80;;;;;;;-1.37;74.73;100834.55;103393;1256;97026;-72
2023/01/29 03:45:56;;;;;;;14.90;10.10;;;;;;;-1.36;74.37;100837.48;103485;1253;107041;-72
2023/01/29 03:48:33;;;;;;;15.60;9.30;;;;;;;-1.34;74.46;100838.39;102729;1255;1002725;-72
2023/01/29 03:51:09;;;;;;;14.10;9.50;;;;;;;-1.29;74.63;100838.85;103507;1250;109690;-70
2023/01/29 03:53:44;;;;;;;16.60;9.30;;;;;;;-1.25;74.72;100837.11;103296;1255;138149;-70
2023/01/29 03:56:25;;;;;;;15.70;9.40;;;;;;;-1.23;74.62;100831.17;102936;1255;1002719;-71
2023/01/29 03:58:57;;;;;;;14.20;9.20;;;;;;;-1.25;74.40;100831.30;103325;1251;138245;-71
2023/01/29 04:01:33;;;;;;;13.90;9.40;;;;;;;-1.27;74.49;100828.31;103473;1257;96526;-71
2023/01/29 04:04:09;;;;;;;14.90;9.10;;;;;;;-1.26;74.59;100822.23;103255;1257;138076;-71
2023/01/29 04:06:40;;;;;;;12.30;8.10;;;;;;;-1.22;74.53;100822.49;103546;1256;107829;-71
2023/01/29 04:09:13;;;;;;;12.10;9.20;;;;;;;-1.22;74.52;100820.80;102704;1257;1003118;-70
2023/01/29 04:11:48;;;;;;;14.40;8.60;;;;;;;-1.19;74.37;100821.35;103342;1251;138312;-70
2023/01/29 04:14:16;;;;;;;14.90;9.50;;;;;;;-1.19;74.61;100817.44;103567;1253;96665;-71
2023/01/29 04:16:47;;;;;;;14.60;8.50;;;;;;;-1.18;74.42;100821.71;102487;1257;1003523;-71
2023/01/29 04:19:30;;;;;;;11.80;8.80;;;;;;;-1.19;74.38;100818.79;103382;1251;108546;-70
2023/01/29 04:22:05;;;;;;;13.70;8.50;;;;;;;-1.21;74.44;100814.32;103309;1256;138478;-71
2023/01/29 04:24:33;;;;;;;12.20;8.50;;;;;;;-1.19;74.48;100813.00;103435;1257;106621;-71
2023/01/29 04:27:16;;;;;;;12.30;8.30;;;;;;;-1.17;74.53;100800.77;103404;1251;96552;-71
2023/01/29 04:29:57;;;;;;;13.20;8.60;;;;;;;-1.15;74.46;100796.20;103283;1251;138138;-71
2023/01/29 04:32:31;;;;;;;12.80;8.30;;;;;;;-1.15;74.25;100792.26;103877;1251;108177;-71
2023/01/29 04:35:16;;;;;;;12.80;8.70;;;;;;;-1.16;74.26;100800.95;102564;1251;1003703;-70
2023/01/29 04:37:50;;;;;;;11.60;7.90;;;;;;;-1.15;74.27;100799.44;103610;1251;107885;-71
2023/01/29 04:40:25;;;;;;;12.60;7.50;;;;;;;-1.15;74.29;100799.44;102528;1256;1003711;-71
2023/01/29 04:43:03;;;;;;;12.30;8.30;;;;;;;-1.16;74.36;100799.09;103469;1251;110576;-71
2023/01/29 04:45:40;;;;;;;13.00;8.20;;;;;;;-1.14;74.33;100802.36;103419;1253;107101;-71
2023/01/29 04:48:17;;;;;;;13.00;7.90;;;;;;;-1.12;74.29;100801.04;103390;1253;138081;-70
2023/01/29 04:50:46;;;;;;;;;;;;;;;-1.10;74.51;100800.40;103768;1264;107933;-70
2023/01/29 04:53:19;;;;;;;12.80;8.00;;;;;;;-1.11;74.51;100792.70;102583;1251;1005314;-70
2023/01/29 04:55:49;;;;;;;11.80;8.60;;;;;;;-1.11;74.43;100790.13;103493;1251;111101;-70
2023/01/29 04:58:30;;;;;;;14.60;8.60;;;;;;;-1.13;74.21;100781.91;102516;1251;1003735;-70
2023/01/29 05:00:58;;;;;;;16.00;8.50;;;;;;;-1.12;74.32;100780.39;103441;1251;97148;-70
2023/01/29 05:03:28;;;;;;;13.90;8.60;;;;;;;-1.12;74.19;100779.89;103401;1251;109353;-70
2023/01/29 05:05:58;;;;;;;12.30;8.60;;;;;;;-1.13;74.14;100779.53;103561;1256;138252;-70
2023/01/29 05:08:28;;;;;;;12.60;8.60;;;;;;;-1.13;74.30;100778.66;103440;1254;111129;-71
2023/01/29 05:10:56;;;;;;;14.40;9.00;;;;;;;-1.12;74.41;100782.77;103272;1255;138155;-71
2023/01/29 05:13:25;;;;;;;14.90;9.00;;;;;;;-1.12;74.18;100783.46;103424;1256;96500;-70
2023/01/29 05:15:57;;;;;;;12.10;8.40;;;;;;;-1.11;74.27;100780.40;103309;1251;138289;-71
2023/01/29 05:18:24;;;;;;;14.20;9.20;;;;;;;-1.12;74.35;100779.02;102797;1257;1002953;-70
2023/01/29 05:20:56;;;;;;;13.60;9.40;;;;;;;-1.15;74.07;100780.66;103457;1254;109402;-70
2023/01/29 05:23:24;;;;;;;14.90;9.30;;;;;;;-1.15;74.23;100779.30;103356;1256;138206;-71
2023/01/29 05:25:51;;;;;;;15.20;9.20;;;;;;;-1.15;74.56;100776.92;103517;1256;96453;-70
2023/01/29 05:28:19;;;;;;;16.00;9.40;;;;;;;-1.15;74.30;100776.05;103349;1254;139110;-71
2023/01/29 05:30:48;;;;;;;15.50;10.00;;;;;;;-1.15;74.28;100772.64;103461;1254;96450;-71
2023/01/29 05:33:17;;;;;;;16.20;9.30;;;;;;;-1.15;74.45;100769.73;103730;1257;109798;-70
2023/01/29 05:35:44;;;;;;;13.40;9.80;;;;;;;-1.13;74.56;100766.54;102542;1251;1003274;-70
2023/01/29 05:38:11;;;;;;;14.20;9.80;;;;;;;-1.13;74.50;100766.20;103494;1251;96825;-71
2023/01/29 05:40:39;;;;;;;16.80;10.30;;;;;;;-1.14;74.43;100760.05;102614;1254;1004342;-70
2023/01/29 05:43:13;;;;;;;16.70;10.10;;;;;;;-1.15;74.51;100762.06;103377;1251;96374;-70
2023/01/29 05:45:40;;;;;;;17.40;10.90;;;;;;;-1.15;74.43;100754.73;103488;1251;110859;-70
2023/01/29 05:48:07;;;;;;;14.70;10.10;;;;;;;-1.15;74.51;100755.08;103300;1256;139827;-70
2023/01/29 05:50:34;;;;;;;18.20;10.50;;;;;;;-1.15;74.62;100753.54;103452;1251;96513;-70
2023/01/29 05:53:02;;;;;;;15.90;9.90;;;;;;;-1.14;74.68;100749.98;102556;1257;1003480;-70
2023/01/29 05:55:30;;;;;;;17.30;9.90;;;;;;;-1.14;74.44;100751.84;103362;1251;96357;-70
2023/01/29 05:57:57;;;;;;;18.70;10.60;;;;;;;-1.15;74.61;100755.42;102581;1251;1002833;-70
2023/01/29 06:00:24;;;;;;;15.80;10.20;;;;;;;-1.15;74.49;100748.92;102635;1251;1003708;-70
2023/01/29 06:02:51;;;;;;;15.90;10.60;;;;;;;-1.16;74.59;100742.26;103395;1251;96451;-71
2023/01/29 06:05:18;;;;;;;16.40;10.60;;;;;;;-1.14;74.68;100743.84;103320;1256;138501;-70
2023/01/29 06:07:45;;;;;;;17.30;10.30;;;;;;;-1.12;74.72;100755.48;103473;1251;96452;-70
2023/01/29 06:10:14;;;;;;;19.10;11.10;;;;;;;-1.08;74.86;100762.23;103302;1254;138653;-70
2023/01/29 06:12:42;;;;;;;15.80;10.40;;;;;;;-1.08;74.76;100767.50;102698;1251;1003016;-70
2023/01/29 06:15:12;;;;;;;15.30;9.90;;;;;;;-1.10;74.62;100763.04;103427;1251;96398;-71
2023/01/29 06:17:39;;;;;;;16.00;10.40;;;;;;;-1.12;74.48;100766.56;103364;1251;139349;-71
2023/01/29 06:20:08;;;;;;;17.50;10.90;;;;;;;-1.12;74.56;100763.33;102668;1251;1002454;-71
2023/01/29 06:22:35;;;;;;;21.00;10.90;;;;;;;-1.10;74.62;100759.61;103385;1251;139667;-70
2023/01/29 06:25:03;;;;;;;18.20;10.20;;;;;;;-1.09;74.59;100758.27;102659;1251;1003012;-71
2023/01/29 06:27:30;;;;;;;18.50;10.50;;;;;;;-1.07;74.52;100765.50;103468;1251;96459;-71
2023/01/29 06:29:56;;;;;;;19.20;11.00;;;;;;;-1.08;74.71;100766.52;103286;1255;138295;-70
2023/01/29 06:32:23;;;;;;;18.40;11.10;;;;;;;-1.06;74.50;100762.65;103483;1251;96321;-71
2023/01/29 06:34:52;;;;;;;15.20;10.50;;;;;;;-1.04;74.45;100757.39;103346;1251;138148;-70
2023/01/29 06:37:19;;;;;;;19.20;11.70;;;;;;;-1.04;74.54;100757.73;103493;1256;107428;-71
2023/01/29 06:39:46;;;;;;;17.10;11.30;;;;;;;-1.03;74.35;100756.73;103463;1255;96436;-70
2023/01/29 06:42:13;;;;;;;19.00;11.40;;;;;;;-1.01;74.35;100756.42;102719;1251;1002933;-70
2023/01/29 06:44:40;;;;;;;20.10;11.60;;;;;;;-1.02;74.57;100757.10;103452;1251;96325;-70
2023/01/29 06:47:07;;;;;;;22.20;11.60;;;;;;;-1.03;74.40;100758.10;103349;1254;138334;-70
2023/01/29 06:49:34;;;;;;;19.80;11.70;;;;;;;-1.01;74.35;100761.55;103558;1251;108042;-69
2023/01/29 06:52:01;;;;;;;18.90;11.40;;;;;;;-0.99;74.56;100759.05;103482;1251;138448;-70
2023/01/29 06:54:28;;;;;;;20.60;12.40;;;;;;;-0.97;74.56;100754.98;103466;1251;107879;-69
2023/01/29 06:56:55;;;;;;;20.40;12.00;;;;;;;-0.97;74.25;100757.37;103432;1251;96325;-70
2023/01/29 06:59:22;;;;;;;22.10;12.10;;;;;;;-0.98;74.30;100761.61;103384;1251;138218;-70
2023/01/29 07:01:49;;;;;;;19.50;11.60;;;;;;;-1.00;74.22;100762.77;102636;1251;1002873;-70
2023/01/29 07:04:16;;;;;;;19.00;11.80;;;;;;;-0.98;74.36;100760.41;102540;1257;1003308;-71
2023/01/29 07:06:42;;;;;;;18.60;11.40;;;;;;;-0.98;74.59;100759.73;103394;1251;106757;-71
2023/01/29 07:09:11;;;;;;;18.40;11.60;;;;;;;-0.95;74.43;100755.52;102686;1256;1002872;-71
2023/01/29 07:11:38;;;;;;;20.10;12.40;;;;;;;-0.95;74.17;100739.15;103398;1251;138857;-71
2023/01/29 07:14:05;;;;;;;18.00;11.00;;;;;;;-0.93;74.37;100732.53;103437;1251;108557;-71
2023/01/29 07:16:32;;;;;;;17.40;11.20;;;;;;;-0.92;74.21;100726.92;103268;1251;138432;-71
2023/01/29 07:18:59;;;;;;;22.90;11.80;;;;;;;-0.89;74.17;100735.88;102679;1251;1002939;-71
2023/01/29 07:21:27;;;;;;;18.90;11.30;;;;;;;-0.90;74.06;100739.77;103396;1251;96449;-70
2023/01/29 07:23:54;;;;;;;21.10;11.10;;;;;;;-0.90;74.26;100739.60;103306;1251;138888;-70
2023/01/29 07:26:21;;;;;;;17.10;11.10;;;;;;;-0.87;74.15;100742.06;103361;1251;106200;-69
2023/01/29 07:28:49;;;;;;;18.70;11.00;;;;;;;-0.88;73.92;100739.33;103274;1256;138420;-70
2023/01/29 07:31:25;;;;;;;17.80;10.40;;;;;;;-0.89;74.01;100745.42;102587;1251;1003229;-70
2023/01/29 07:33:52;;;;;;;18.60;11.10;;;;;;;-0.87;74.08;100754.02;102614;1251;1003477;-70
2023/01/29 07:36:19;;;;;;;16.30;10.50;;;;;;;-0.82;74.39;100760.45;102640;1251;1003736;-71
2023/01/29 07:38:50;;;;;;;17.30;10.40;;;;;;;-0.79;74.13;100760.33;103521;1251;107042;-70
2023/01/29 07:41:18;;;;;;;18.70;10.60;;;;;;;-0.80;73.97;100766.63;102692;1251;1002919;-71
2023/01/29 07:43:45;;;;;;;14.00;10.20;;;;;;;-0.78;74.07;100764.62;103445;1257;107851;-71
2023/01/29 07:46:12;;;;;;;16.30;10.20;;;;;;;-0.78;73.74;100768.88;103346;1256;139910;-71
2023/01/29 07:48:39;;;;;;;17.70;11.00;;;;;;;-0.80;73.96;100765.62;103521;1251;110284;-71
2023/01/29 07:51:07;;;;;;;18.40;11.30;;;;;;;-0.77;73.98;100766.01;103398;1257;107763;-71
2023/01/29 07:53:34;;;;;;;19.00;10.90;;;;;;;-0.74;73.82;100760.09;102644;1256;1002987;-70
2023/01/29 07:56:02;;;;;;;17.80;10.60;;;;;;;-0.70;73.74;100757.46;103425;1256;107357;-70
2023/01/29 07:58:29;;;;;;;18.60;10.70;;;;;;;-0.68;73.42;100747.27;103302;1251;140229;-72
2023/01/29 08:00:56;;;;;;;18.60;11.40;;;;;;;-0.62;73.72;100745.50;103420;1257;110279;-72
2023/01/29 08:03:23;;;;;;;18.70;10.40;;;;;;;-0.61;73.49;100737.66;103325;1255;107336;-72
2023/01/29 08:05:50;;;;;;;19.50;11.50;;;;;;;-0.58;73.57;100742.84;103308;1255;138610;-72
2023/01/29 08:08:18;;;;;;;17.60;10.80;;;;;;;-0.56;73.34;100742.37;103334;1256;107360;-72
2023/01/29 08:10:45;;;;;;;17.60;10.00;;;;;;;-0.54;73.38;100744.14;103312;1254;139279;-72
2023/01/29 08:13:12;;;;;;;19.50;11.50;;;;;;;-0.50;73.30;100739.78;103360;1256;111079;-72
2023/01/29 08:15:39;;;;;;;19.60;11.60;;;;;;;-0.52;73.10;100736.49;103345;1257;107618;-72
2023/01/29 08:18:06;;;;;;;15.40;10.50;;;;;;;-0.51;73.11;100726.61;103246;1251;138160;-72
2023/01/29 08:20:33;;;;;;;16.90;10.70;;;;;;;-0.51;72.89;100723.02;103377;1251;107944;-72
2023/01/29 08:23:04;;;;;;;19.20;11.00;;;;;;;-0.51;72.80;100719.43;103344;1254;138878;-71
2023/01/29 08:25:32;;;;;;;17.70;10.40;;;;;;;-0.48;72.94;100724.96;103462;1254;108915;-71
2023/01/29 08:28:00;;;;;;;16.90;10.50;;;;;;;-0.46;72.72;100727.20;102539;1251;1002989;-71
2023/01/29 08:30:28;;;;;;;16.10;10.80;;;;;;;-0.44;72.78;100725.54;102758;1251;1003356;-70
2023/01/29 08:32:55;;;;;;;19.20;10.50;;;;;;;-0.44;72.53;100727.25;102574;1251;1003034;-70
2023/01/29 08:35:23;;;;;;;16.80;9.90;;;;;;;-0.42;72.55;100729.33;103301;1251;139370;-70
2023/01/29 08:37:55;;;;;;;16.80;10.70;;;;;;;-0.40;72.36;100721.85;103441;1251;110935;-71
2023/01/29 08:40:22;;;;;;;17.50;10.70;;;;;;;-0.37;72.63;100729.95;102604;1251;1002735;-73
2023/01/29 08:42:49;;;;;;;17.40;10.80;;;;;;;-0.32;72.56;100729.05;103438;1251;96465;-71
2023/01/29 08:45:17;;;;;;;17.40;10.00;;;;;;;-0.26;72.43;100731.71;102701;1251;1002723;-71
2023/01/29 08:47:48;;;;;;;17.40;9.90;;;;;;;-0.22;72.35;100722.89;103375;1256;139591;-71
2023/01/29 08:50:16;;;;;;;18.40;9.60;;;;;;;-0.21;72.07;100721.03;103470;1256;111335;-71
2023/01/29 08:52:43;;;;;;;16.90;10.70;;;;;;;-0.21;72.16;100720.69;102554;1254;1003110;-72
2023/01/29 08:55:11;;;;;;;17.20;10.80;;;;;;;-0.20;72.27;100710.80;103471;1255;96971;-72
2023/01/29 08:57:39;;;;;;;16.30;10.30;;;;;;;-0.19;72.06;100709.61;103470;1251;107296;-71
2023/01/29 09:00:08;;;;;;;17.50;10.20;;;;;;;-0.18;72.11;100706.91;103307;1251;138274;-71
2023/01/29 09:02:35;;;;;;;14.40;9.50;;;;;;;-0.19;72.15;100710.30;103554;1251;109888;-72
2023/01/29 09:05:02;;;;;;;17.70;10.00;;;;;;;-0.21;72.20;100709.41;103348;1251;138466;-73
2023/01/29 09:07:30;;;;;;;14.20;8.70;;;;;;;-0.20;72.31;100711.13;103513;1251;96251;-69
2023/01/29 09:09:57;;;;;;;18.90;9.90;;;;;;;-0.19;72.38;100707.23;103352;1255;138158;-74
2023/01/29 09:12:24;;;;;;;14.50;9.60;;;;;;;-0.15;72.38;100702.02;103481;1251;96359;-73
2023/01/29 09:14:51;;;;;;;15.40;9.40;;;;;;;-0.09;72.63;100698.02;103467;1251;109986;-71
2023/01/29 09:17:18;;;;;;;15.90;9.30;;;;;;;-0.03;72.54;100695.39;103273;1251;138279;-70
2023/01/29 09:19:45;;;;;;;14.10;8.90;;;;;;;0.01;72.55;100690.86;103438;1254;96513;-71
2023/01/29 09:22:12;;;;;;;16.80;9.80;;;;;;;0.04;72.63;100687.15;102442;1256;1002921;-71
2023/01/29 09:24:39;;;;;;;16.20;10.10;;;;;;;0.04;72.79;100684.08;103421;1251;96507;-73
2023/01/29 09:27:06;;;;;;;18.50;10.00;;;;;;;0.07;72.97;100687.87;103532;1254;109887;-73
2023/01/29 09:29:36;;;;;;;14.50;9.80;;;;;;;0.09;72.88;100688.42;103264;1254;138701;-72
2023/01/29 09:32:03;;;;;;;15.00;9.90;;;;;;;0.09;72.75;100683.29;103369;1254;96537;-71
2023/01/29 09:34:32;;;;;;;19.50;10.70;;;;;;;0.07;72.62;100680.02;102485;1251;1002948;-69
2023/01/29 09:36:59;;;;;;;17.90;10.20;;;;;;;0.06;72.76;100683.91;103364;1251;96536;-71
2023/01/29 09:39:26;;;;;;;19.80;10.40;;;;;;;0.04;72.98;100679.61;102706;1254;1003211;-74
2023/01/29 09:41:59;;;;;;;14.70;10.20;;;;;;;0.12;74.79;100677.01;103476;1251;139969;-74
2023/01/29 09:44:33;;;;;;;17.80;10.40;;;;;;;0.26;76.38;100674.70;103698;1251;97083;-76
2023/01/29 09:47:03;;;;;;;17.70;10.30;;;;;;;0.36;75.45;100675.38;103605;1255;138771;-73
2023/01/29 09:49:36;;;;;;;18.20;9.90;;;;;;;0.44;75.02;100664.71;103447;1252;96444;-71
2023/01/29 09:52:10;;;;;;;17.30;10.30;;;;;;;0.47;74.21;100662.37;103855;1251;139624;-71
2023/01/29 09:54:48;;;;;;;13.20;9.30;;;;;;;0.47;74.11;100668.52;103439;1251;108346;-70
2023/01/29 09:57:22;;;;;;;16.00;10.20;;;;;;;0.50;74.06;100663.61;103402;1256;96488;-72
2023/01/29 09:59:49;;;;;;;16.20;10.00;;;;;;;0.52;73.94;100664.30;103189;1254;138003;-71
2023/01/29 10:02:36;;;;;;;18.10;9.40;;;;;;;0.55;73.98;100661.48;103412;1251;96468;-74
2023/01/29 10:05:23;;;;;;;18.80;10.30;;;;;;;0.56;73.94;100658.23;103385;1251;137835;-73
2023/01/29 10:08:32;;;;;;;15.80;9.70;;;;;;;0.53;74.09;100653.05;103406;1251;106991;-72
2023/01/29 10:11:07;;;;;;;18.00;10.50;;;;;;;0.52;74.22;100651.30;102999;1256;138109;-71
2023/01/29 10:13:48;;;;;;;17.20;10.10;;;;;;;0.51;74.62;100651.47;102940;1255;108272;-72
2023/01/29 10:16:27;;;;;;;17.20;9.80;;;;;;;0.46;74.65;100651.40;102891;1260;138607;-71
2023/01/29 10:19:32;;;;;;;16.50;10.40;;;;;;;0.40;74.74;100648.41;103136;1257;110323;-72
2023/01/29 10:22:12;;;;;;;17.60;10.50;;;;;;;0.31;74.82;100638.34;102867;1256;138909;-73
2023/01/29 10:24:44;;;;;;;18.70;11.30;;;;;;;0.25;75.18;100637.91;103800;1256;95871;-71
2023/01/29 10:27:17;;;;;;;18.20;11.40;;;;;;;0.23;75.40;100633.10;103007;1256;109087;-74
2023/01/29 10:29:47;;;;;;;16.80;10.70;;;;;;;0.23;75.67;100635.33;103035;1256;138423;-73
2023/01/29 10:32:18;;;;;;;20.70;11.90;;;;;;;0.21;75.96;100631.19;103438;1255;109813;-74
2023/01/29 10:34:50;;;;;;;18.80;11.00;;;;;;;0.21;76.02;100631.70;102992;1260;138315;-73
2023/01/29 10:37:20;;;;;;;21.40;10.70;;;;;;;0.20;76.03;100629.80;103133;1260;96572;-73
2023/01/29 10:39:47;;;;;;;17.30;10.50;;;;;;;0.18;76.13;100629.07;102926;1256;108102;-75
2023/01/29 10:42:29;;;;;;;18.30;11.20;;;;;;;0.11;76.07;100630.84;103176;1257;96552;-75
2023/01/29 10:45:19;;;;;;;17.70;11.50;;;;;;;0.09;76.24;100631.31;103969;1251;1002375;-75
2023/01/29 10:48:03;;;;;;;20.70;11.20;;;;;;;0.09;76.58;100631.49;104628;1251;138423;-77
2023/01/29 10:50:41;;;;;;;17.00;10.80;;;;;;;0.08;76.72;100627.71;104775;1251;96128;-77
2023/01/29 10:53:27;;;;;;;19.00;10.80;;;;;;;0.07;76.64;100627.34;104661;1251;140301;-77
2023/01/29 10:56:02;;;;;;;18.20;11.80;;;;;;;0.03;76.85;100621.31;104766;1251;94389;-75
2023/01/29 10:58:48;;;;;;;20.70;11.50;;;;;;;0.03;76.95;100614.63;104025;1255;137982;-75
2023/01/29 11:01:16;;;;;;;18.50;12.10;;;;;;;0.03;76.97;100612.93;103485;1255;108111;-74
2023/01/29 11:03:43;;;;;;;18.00;11.40;;;;;;;0.03;76.98;100608.15;103544;1251;96572;-77
2023/01/29 11:06:16;;;;;;;17.10;11.20;;;;;;;0.00;76.96;100608.78;103349;1251;137842;-77
2023/01/29 11:08:51;;;;;;;18.40;11.50;;;;;;;0.00;77.19;100607.41;103670;1251;96318;-75
2023/01/29 11:11:21;;;;;;;22.80;12.00;;;;;;;0.04;77.42;100604.75;104058;1251;138005;-76
2023/01/29 11:13:56;;;;;;;21.30;11.80;;;;;;;0.06;77.32;100599.30;102639;1255;1003196;-73
2023/01/29 11:16:23;;;;;;;19.20;11.70;;;;;;;0.08;77.49;100598.14;103584;1251;139418;-74
2023/01/29 11:18:59;;;;;;;23.50;12.30;;;;;;;0.11;77.49;100594.23;103470;1251;109127;-76
2023/01/29 11:21:28;;;;;;;21.60;12.00;;;;;;;0.13;77.49;100588.96;103438;1255;96434;-75
2023/01/29 11:24:11;;;;;;;20.20;12.10;;;;;;;0.15;77.64;100585.58;103301;1255;138277;-75
2023/01/29 11:26:40;;;;;;;21.30;12.30;;;;;;;0.15;77.65;100580.11;103311;1256;106792;-76
2023/01/29 11:29:37;;;;;;;19.50;11.80;;;;;;;0.16;77.59;100571.57;103706;1253;138325;-76
2023/01/29 11:32:06;;;;;;;19.80;11.60;;;;;;;0.18;77.75;100554.52;103505;1251;107727;-76
2023/01/29 11:34:33;;;;;;;18.40;11.30;;;;;;;0.22;77.74;100545.86;103368;1254;138314;-76
2023/01/29 11:37:02;;;;;;;19.10;11.60;;;;;;;0.21;77.55;100544.14;103441;1251;108621;-76
2023/01/29 11:39:30;;;;;;;19.90;12.10;;;;;;;0.18;77.52;100536.22;102504;1255;1003758;-76
2023/01/29 11:42:00;;;;;;;21.10;12.90;;;;;;;0.16;77.54;100533.44;103333;1251;138654;-77